createdAt,value
2023-03-12T00:00:50.828Z,9.83
2023-03-12T00:03:17.874Z,9.40
2023-03-12T00:05:45.753Z,9.70
2023-03-12T00:08:13.516Z,9.73
2023-03-12T00:10:41.180Z,9.80
2023-03-12T00:13:08.791Z,10.27
2023-03-12T00:15:39.629Z,10.60
2023-03-12T00:18:06.905Z,9.63
2023-03-12T00:20:34.103Z,10.33
2023-03-12T00:23:01.286Z,8.80
2023-03-12T00:25:28.419Z,9.67
2023-03-12T00:27:55.620Z,9.90
2023-03-12T00:30:22.844Z,10.10
2023-03-12T00:32:50.097Z,9.20
2023-03-12T00:35:18.187Z,8.73
2023-03-12T00:37:45.592Z,9.20
2023-03-12T00:40:15.792Z,9.07
2023-03-12T00:42:42.606Z,9.20
2023-03-12T00:45:09.722Z,9.70
2023-03-12T00:47:36.862Z,8.90
2023-03-12T00:50:06.827Z,8.27
2023-03-12T00:52:33.572Z,9.27
2023-03-12T00:55:00.332Z,9.20
2023-03-12T00:57:30.179Z,9.33
2023-03-12T00:59:57.389Z,8.27
2023-03-12T01:02:24.617Z,10.00
2023-03-12T01:04:51.751Z,9.10
2023-03-12T01:07:18.655Z,9.00
2023-03-12T01:09:45.775Z,8.67
2023-03-12T01:12:12.914Z,8.57
2023-03-12T01:14:39.809Z,8.97
2023-03-12T01:17:06.966Z,8.23
2023-03-12T01:19:34.071Z,8.20
2023-03-12T01:22:00.945Z,9.43
2023-03-12T01:24:27.808Z,8.97
2023-03-12T01:26:55.011Z,9.80
2023-03-12T01:29:22.265Z,9.00
2023-03-12T01:31:49.336Z,9.30
2023-03-12T01:34:16.116Z,8.97
2023-03-12T01:36:44.424Z,8.90
2023-03-12T01:39:11.576Z,8.90
2023-03-12T01:41:38.772Z,8.43
2023-03-12T01:44:06.103Z,9.33
2023-03-12T01:46:43.165Z,8.60
2023-03-12T01:49:16.249Z,9.40
2023-03-12T01:52:06.228Z,9.13
2023-03-12T01:54:54.722Z,9.37
2023-03-12T01:57:25.834Z,9.47
2023-03-12T01:59:59.067Z,9.00
2023-03-12T02:02:28.774Z,9.07
2023-03-12T02:05:19.378Z,9.27
2023-03-12T02:07:47.082Z,9.60
2023-03-12T02:10:15.165Z,9.30
2023-03-12T02:12:42.305Z,8.60
2023-03-12T02:15:09.529Z,9.33
2023-03-12T02:17:37.150Z,8.70
2023-03-12T02:20:14.063Z,9.10
2023-03-12T02:22:46.325Z,9.10
2023-03-12T02:25:36.682Z,9.57
2023-03-12T02:28:07.226Z,10.33
2023-03-12T02:30:34.864Z,8.80
2023-03-12T02:33:06.101Z,9.53
2023-03-12T02:35:33.196Z,10.50
2023-03-12T02:38:00.399Z,8.83
2023-03-12T02:40:27.549Z,9.90
2023-03-12T02:42:55.537Z,8.53
2023-03-12T02:45:24.978Z,9.07
2023-03-12T02:47:52.138Z,9.37
2023-03-12T02:50:19.318Z,9.73
2023-03-12T02:52:46.006Z,9.50
2023-03-12T02:55:13.151Z,9.87
2023-03-12T02:57:40.701Z,8.43
2023-03-12T03:00:14.585Z,9.00
2023-03-12T03:02:42.563Z,9.80
2023-03-12T03:05:12.857Z,9.50
2023-03-12T03:07:41.667Z,8.70
2023-03-12T03:10:09.705Z,8.80
2023-03-12T03:12:37.025Z,8.70
2023-03-12T03:15:07.470Z,7.43
2023-03-12T03:17:34.620Z,8.20
2023-03-12T03:20:01.781Z,8.07
2023-03-12T03:22:29.091Z,9.30
2023-03-12T03:24:56.165Z,9.40
2023-03-12T03:27:22.962Z,8.90
2023-03-12T03:29:53.047Z,9.40
2023-03-12T03:32:19.872Z,9.67
2023-03-12T03:34:46.919Z,10.20
2023-03-12T03:37:14.074Z,10.50
2023-03-12T03:39:40.930Z,10.43
2023-03-12T03:42:07.933Z,10.80
2023-03-12T03:44:35.067Z,11.37
2023-03-12T03:47:02.497Z,12.17
2023-03-12T03:49:29.611Z,13.07
2023-03-12T03:51:56.794Z,12.07
2023-03-12T03:54:26.691Z,14.40
2023-03-12T03:56:53.857Z,13.27
2023-03-12T03:59:20.559Z,12.70
2023-03-12T04:01:47.716Z,13.07
2023-03-12T04:04:14.524Z,13.77
2023-03-12T04:06:41.354Z,13.87
2023-03-12T04:09:08.604Z,14.17
2023-03-12T04:11:35.445Z,13.70
2023-03-12T04:14:02.594Z,13.30
2023-03-12T04:16:29.903Z,13.27
2023-03-12T04:18:57.035Z,13.23
2023-03-12T04:21:24.232Z,12.70
2023-03-12T04:23:51.348Z,11.67
2023-03-12T04:26:18.532Z,12.33
2023-03-12T04:28:45.734Z,13.13
2023-03-12T04:31:12.635Z,14.80
2023-03-12T04:33:42.999Z,13.73
2023-03-12T04:36:09.967Z,13.27
2023-03-12T04:38:36.938Z,13.70
2023-03-12T04:41:12.901Z,13.00
2023-03-12T04:43:40.178Z,14.00
2023-03-12T04:46:07.778Z,12.80
2023-03-12T04:48:36.057Z,13.00
2023-03-12T04:51:04.319Z,11.53
2023-03-12T04:53:34.555Z,12.60
2023-03-12T04:56:01.754Z,12.20
2023-03-12T04:58:28.963Z,12.30
2023-03-12T05:00:56.133Z,11.83
2023-03-12T05:03:23.235Z,13.67
2023-03-12T05:05:50.593Z,12.60
2023-03-12T05:08:22.788Z,12.00
2023-03-12T05:10:49.941Z,13.37
2023-03-12T05:13:18.959Z,12.67
2023-03-12T05:15:46.960Z,12.57
2023-03-12T05:18:13.790Z,12.40
2023-03-12T05:20:43.106Z,12.50
2023-03-12T05:23:15.722Z,12.70
2023-03-12T05:25:42.565Z,12.43
2023-03-12T05:28:09.827Z,14.63
2023-03-12T05:30:37.076Z,17.03
2023-03-12T05:33:04.289Z,16.50
2023-03-12T05:35:31.372Z,14.37
2023-03-12T05:38:00.042Z,15.00
2023-03-12T05:40:27.203Z,15.10
2023-03-12T05:42:54.403Z,14.17
2023-03-12T05:45:21.590Z,14.13
2023-03-12T05:47:48.694Z,15.27
2023-03-12T05:50:16.789Z,14.30
2023-03-12T05:52:43.956Z,16.07
2023-03-12T05:55:11.087Z,16.07
2023-03-12T05:57:37.899Z,15.50
2023-03-12T06:00:05.770Z,16.60
2023-03-12T06:02:33.027Z,15.63
2023-03-12T06:04:59.847Z,15.77
2023-03-12T06:07:26.687Z,14.93
2023-03-12T06:09:56.756Z,14.40
2023-03-12T06:12:23.898Z,14.87
2023-03-12T06:14:51.072Z,18.80
2023-03-12T06:17:18.227Z,18.33
2023-03-12T06:19:44.919Z,15.73
2023-03-12T06:22:12.116Z,16.20
2023-03-12T06:24:40.969Z,15.60
2023-03-12T06:27:08.133Z,15.60
2023-03-12T06:29:35.265Z,14.20
2023-03-12T06:32:02.507Z,15.00
2023-03-12T06:34:29.650Z,14.77
2023-03-12T06:37:00.776Z,14.27
2023-03-12T06:39:27.491Z,13.80
2023-03-12T06:41:54.708Z,13.97
2023-03-12T06:44:22.096Z,14.30
2023-03-12T06:46:48.948Z,14.30
2023-03-12T06:49:16.270Z,12.43
2023-03-12T06:51:43.432Z,12.17
2023-03-12T06:54:10.225Z,12.03
2023-03-12T06:56:38.979Z,7.67
2023-03-12T06:59:06.094Z,9.27
2023-03-12T07:01:33.211Z,6.07
2023-03-12T07:04:00.345Z,4.50
2023-03-12T07:06:27.504Z,4.40
2023-03-12T07:08:54.556Z,4.07
2023-03-12T07:11:23.245Z,3.93
2023-03-12T07:13:54.615Z,4.20
2023-03-12T07:16:21.840Z,4.27
2023-03-12T07:18:48.966Z,4.70
2023-03-12T07:21:22.704Z,3.77
2023-03-12T07:23:53.527Z,9.60
2023-03-12T07:26:20.479Z,4.07
2023-03-12T07:28:47.836Z,3.90
2023-03-12T07:31:14.995Z,3.90
2023-03-12T07:33:42.293Z,3.77
2023-03-12T07:36:09.434Z,4.07
2023-03-12T07:38:36.695Z,3.53
2023-03-12T07:41:03.960Z,3.80
2023-03-12T07:43:30.783Z,3.70
2023-03-12T07:45:57.960Z,3.87
2023-03-12T07:48:25.317Z,4.30
2023-03-12T07:50:52.447Z,3.90
2023-03-12T07:53:19.158Z,4.30
2023-03-12T07:55:47.932Z,4.00
2023-03-12T07:58:16.325Z,3.73
2023-03-12T08:00:43.401Z,3.47
2023-03-12T08:03:10.866Z,4.47
2023-03-12T08:05:38.173Z,3.30
2023-03-12T08:08:05.781Z,4.03
2023-03-12T08:10:33.098Z,3.73
2023-03-12T08:13:00.256Z,4.07
2023-03-12T08:15:27.420Z,4.43
2023-03-12T08:17:54.632Z,3.80
2023-03-12T08:20:21.814Z,4.00
2023-03-12T08:22:48.666Z,4.57
2023-03-12T08:25:16.143Z,3.67
2023-03-12T08:27:45.635Z,4.13
2023-03-12T08:30:12.736Z,4.10
2023-03-12T08:32:43.069Z,3.87
2023-03-12T08:35:10.206Z,3.80
2023-03-12T08:37:37.570Z,4.10
2023-03-12T08:40:13.868Z,4.30
2023-03-12T08:42:42.718Z,3.83
2023-03-12T08:45:11.421Z,3.60
2023-03-12T08:47:41.540Z,4.03
2023-03-12T08:50:13.340Z,3.83
2023-03-12T08:55:07.510Z,3.93
2023-03-12T08:57:34.674Z,4.47
2023-03-12T09:00:01.931Z,4.30
2023-03-12T09:02:29.099Z,4.20
2023-03-12T09:04:55.870Z,4.77
2023-03-12T09:07:22.792Z,4.17
2023-03-12T09:09:50.036Z,4.60
2023-03-12T09:12:16.824Z,4.27
2023-03-12T09:15:02.950Z,4.20
2023-03-12T09:17:30.746Z,4.30
2023-03-12T09:19:57.549Z,4.97
2023-03-12T09:22:24.419Z,4.70
2023-03-12T09:24:51.300Z,4.00
2023-03-12T09:27:18.016Z,4.80
2023-03-12T09:29:57.228Z,3.90
2023-03-12T09:32:27.604Z,4.00
2023-03-12T09:34:55.095Z,4.33
2023-03-12T09:37:24.135Z,4.97
2023-03-12T09:39:52.240Z,4.60
2023-03-12T09:42:32.725Z,5.10
2023-03-12T09:45:04.562Z,5.00
2023-03-12T09:47:35.464Z,5.70
2023-03-12T09:50:10.924Z,4.50
2023-03-12T09:52:48.773Z,4.83
2023-03-12T09:55:18.781Z,5.57
2023-03-12T09:57:48.070Z,6.00
2023-03-12T10:00:21.504Z,5.27
2023-03-12T10:03:29.960Z,5.40
2023-03-12T10:06:08.729Z,5.30
2023-03-12T10:08:46.440Z,5.73
2023-03-12T10:11:19.172Z,5.90
2023-03-12T10:14:23.752Z,5.60
2023-03-12T10:16:59.953Z,6.23
2023-03-12T10:19:51.662Z,6.07
2023-03-12T10:22:48.915Z,6.90
2023-03-12T10:25:16.076Z,6.83
2023-03-12T10:27:43.499Z,6.80
2023-03-12T10:30:19.467Z,8.40
2023-03-12T10:32:52.922Z,7.03
2023-03-12T10:35:22.496Z,7.97
2023-03-12T10:37:56.740Z,7.23
2023-03-12T10:40:29.832Z,6.47
2023-03-12T10:42:57.067Z,6.43
2023-03-12T10:45:46.047Z,6.90
2023-03-12T10:48:20.539Z,6.73
2023-03-12T10:51:00.834Z,5.83
2023-03-12T10:53:30.440Z,5.70
2023-03-12T10:56:00.185Z,6.70
2023-03-12T10:58:31.174Z,6.70
2023-03-12T11:01:01.133Z,6.97
2023-03-12T11:03:29.208Z,8.07
2023-03-12T11:06:01.317Z,7.80
2023-03-12T11:08:34.234Z,8.70
2023-03-12T11:11:03.489Z,8.63
2023-03-12T11:13:39.476Z,8.57
2023-03-12T11:16:18.756Z,7.63
2023-03-12T11:18:54.471Z,9.63
2023-03-12T11:21:21.314Z,9.70
2023-03-12T11:24:08.433Z,10.87
2023-03-12T11:26:51.012Z,10.80
2023-03-12T11:29:33.099Z,12.90
2023-03-12T11:32:12.045Z,11.40
2023-03-12T11:34:40.036Z,13.40
2023-03-12T11:37:11.123Z,13.27
2023-03-12T11:39:58.880Z,13.67
2023-03-12T11:42:41.494Z,12.13
2023-03-12T11:45:24.618Z,12.33
2023-03-12T11:48:23.085Z,14.37
2023-03-12T11:50:52.902Z,14.93
2023-03-12T11:53:48.448Z,15.37
2023-03-12T11:56:27.608Z,16.17
2023-03-12T11:59:06.633Z,15.80
2023-03-12T12:01:54.472Z,14.90
2023-03-12T12:04:33.275Z,17.10
2023-03-12T12:07:14.221Z,13.07
2023-03-12T12:09:58.952Z,14.50
2023-03-12T12:12:46.014Z,15.73
2023-03-12T12:15:15.758Z,13.90
2023-03-12T12:17:57.083Z,14.70
2023-03-12T12:20:42.477Z,16.50
2023-03-12T12:23:22.721Z,15.40
2023-03-12T12:26:13.058Z,14.50
2023-03-12T12:28:54.171Z,14.73
2023-03-12T12:31:41.657Z,15.27
2023-03-12T12:34:14.258Z,13.40
2023-03-12T12:36:46.478Z,12.00
2023-03-12T12:39:26.854Z,11.90
2023-03-12T12:41:57.186Z,11.67
2023-03-12T12:44:36.995Z,11.53
2023-03-12T12:47:06.847Z,12.23
2023-03-12T12:49:34.050Z,11.00
2023-03-12T12:52:04.912Z,9.90
2023-03-12T12:54:51.850Z,10.70
2023-03-12T12:57:21.192Z,10.80
2023-03-12T13:00:26.136Z,11.23
2023-03-12T13:02:55.497Z,11.40
2023-03-12T13:05:37.159Z,11.90
2023-03-12T13:08:05.610Z,12.40
2023-03-12T13:10:35.381Z,16.07
2023-03-12T13:13:12.714Z,13.83
2023-03-12T13:15:43.790Z,12.90
2023-03-12T13:18:11.727Z,13.30
2023-03-12T13:20:52.370Z,14.00
2023-03-12T13:23:55.408Z,14.17
2023-03-12T13:26:49.122Z,13.60
2023-03-12T13:29:46.186Z,15.10
2023-03-12T13:32:34.792Z,13.90
2023-03-12T13:35:27.413Z,17.07
2023-03-12T13:37:54.567Z,16.30
2023-03-12T13:40:30.297Z,16.50
2023-03-12T13:43:30.344Z,15.70
2023-03-12T13:46:07.415Z,17.10
2023-03-12T13:48:36.387Z,17.63
2023-03-12T13:51:16.115Z,18.07
2023-03-12T13:53:48.304Z,17.80
2023-03-12T13:56:19.286Z,18.43
2023-03-12T13:59:13.701Z,19.50
2023-03-12T14:01:50.095Z,18.50
2023-03-12T14:04:29.297Z,19.27
2023-03-12T14:07:05.855Z,19.00
2023-03-12T14:09:40.271Z,18.60
2023-03-12T14:12:52.803Z,19.80
2023-03-12T14:15:49.656Z,20.23
2023-03-12T14:18:23.669Z,19.50
2023-03-12T14:20:55.941Z,19.67
2023-03-12T14:23:26.989Z,18.67
2023-03-12T14:26:06.701Z,20.13
2023-03-12T14:28:40.704Z,20.83
2023-03-12T14:31:23.913Z,24.00
2023-03-12T14:34:01.868Z,23.07
2023-03-12T14:37:16.689Z,24.90
2023-03-12T14:40:14.253Z,24.80
2023-03-12T14:42:41.748Z,25.90
2023-03-12T14:45:12.482Z,26.60
2023-03-12T14:47:44.463Z,24.70
2023-03-12T14:50:26.087Z,28.00
2023-03-12T14:52:53.346Z,28.57
2023-03-12T14:55:23.279Z,28.03
2023-03-12T14:58:02.564Z,30.60
2023-03-12T15:00:29.767Z,29.67
2023-03-12T15:02:59.776Z,30.47
2023-03-12T15:05:26.848Z,29.57
2023-03-12T15:08:00.881Z,30.30
2023-03-12T15:10:30.076Z,32.37
2023-03-12T15:12:59.766Z,31.10
2023-03-12T15:15:45.686Z,30.13
2023-03-12T15:18:26.650Z,31.77
2023-03-12T15:20:54.112Z,32.53
2023-03-12T15:23:22.654Z,34.10
2023-03-12T15:26:08.153Z,34.17
2023-03-12T15:28:35.053Z,31.30
2023-03-12T15:31:11.829Z,30.40
2023-03-12T15:33:39.996Z,31.97
2023-03-12T15:36:28.426Z,30.90
2023-03-12T15:39:03.068Z,29.60
2023-03-12T15:41:48.748Z,30.27
2023-03-12T15:44:21.718Z,30.33
2023-03-12T15:46:51.925Z,31.20
2023-03-12T15:49:27.038Z,30.73
2023-03-12T15:52:22.026Z,30.17
2023-03-12T15:55:07.590Z,32.53
2023-03-12T15:57:36.889Z,31.27
2023-03-12T16:00:17.625Z,30.50
2023-03-12T16:03:05.999Z,31.07
2023-03-12T16:05:38.451Z,30.70
2023-03-12T16:08:11.570Z,29.13
2023-03-12T16:10:39.550Z,30.33
2023-03-12T16:13:06.409Z,31.70
2023-03-12T16:15:37.001Z,31.87
2023-03-12T16:18:04.540Z,30.53
2023-03-12T16:20:31.392Z,30.97
2023-03-12T16:22:58.218Z,33.17
2023-03-12T16:25:25.842Z,31.90
2023-03-12T16:27:56.730Z,30.43
2023-03-12T16:30:23.754Z,33.23
2023-03-12T16:32:50.643Z,31.77
2023-03-12T16:35:19.692Z,31.50
2023-03-12T16:37:47.125Z,30.63
2023-03-12T16:40:24.032Z,30.60
2023-03-12T16:43:03.555Z,29.70
2023-03-12T16:45:33.743Z,31.20
2023-03-12T16:48:03.170Z,30.77
2023-03-12T16:50:30.805Z,32.10
2023-03-12T16:52:58.763Z,29.97
2023-03-12T16:55:30.329Z,31.70
2023-03-12T16:58:00.481Z,31.03
2023-03-12T17:00:30.225Z,28.30
2023-03-12T17:02:58.085Z,29.97
2023-03-12T17:05:26.909Z,27.50
2023-03-12T17:07:54.139Z,25.55
2023-03-12T17:10:22.275Z,23.20
2023-03-12T17:12:49.579Z,21.10
2023-03-12T17:15:25.890Z,21.47
2023-03-12T17:17:55.608Z,20.27
2023-03-12T17:20:24.411Z,17.87
2023-03-12T17:22:51.237Z,17.63
2023-03-12T17:25:28.356Z,15.10
2023-03-12T17:27:58.078Z,14.40
2023-03-12T17:30:29.442Z,15.10
2023-03-12T17:33:11.709Z,14.50
2023-03-12T17:35:39.895Z,14.30
2023-03-12T17:38:07.684Z,13.07
2023-03-12T17:40:36.005Z,12.07
2023-03-12T17:43:02.808Z,12.87
2023-03-12T17:45:29.611Z,12.47
2023-03-12T17:47:56.405Z,15.87
2023-03-12T17:50:23.247Z,13.53
2023-03-12T17:52:50.753Z,12.60
2023-03-12T17:55:17.757Z,12.60
2023-03-12T17:57:44.785Z,12.27
2023-03-12T18:00:13.177Z,11.57
2023-03-12T18:02:41.426Z,11.40
2023-03-12T18:05:10.834Z,13.00
2023-03-12T18:07:38.322Z,13.33
2023-03-12T18:10:07.617Z,12.30
2023-03-12T18:12:34.971Z,11.87
2023-03-12T18:15:02.250Z,12.07
2023-03-12T18:17:29.211Z,12.73
2023-03-12T18:19:56.270Z,13.20
2023-03-12T18:22:24.530Z,12.50
2023-03-12T18:24:51.570Z,15.07
2023-03-12T18:27:18.751Z,12.90
2023-03-12T18:29:45.593Z,13.60
2023-03-12T18:32:12.636Z,13.10
2023-03-12T18:34:42.346Z,11.93
2023-03-12T18:37:09.152Z,11.20
2023-03-12T18:39:35.928Z,13.00
2023-03-12T18:42:02.691Z,12.37
2023-03-12T18:44:29.578Z,12.80
2023-03-12T18:46:56.456Z,12.20
2023-03-12T18:49:23.386Z,12.20
2023-03-12T18:51:54.537Z,12.47
2023-03-12T18:54:23.576Z,13.00
2023-03-12T18:56:51.400Z,11.03
2023-03-12T18:59:18.570Z,11.53
2023-03-12T19:01:45.471Z,10.67
2023-03-12T19:04:16.192Z,10.83
2023-03-12T19:06:50.765Z,14.63
2023-03-12T19:09:20.587Z,10.57
2023-03-12T19:11:49.893Z,9.90
2023-03-12T19:14:18.211Z,10.27
2023-03-12T19:16:45.022Z,11.27
2023-03-12T19:19:11.994Z,10.77
2023-03-12T19:21:39.183Z,10.13
2023-03-12T19:24:06.012Z,9.80
2023-03-12T19:26:32.862Z,11.47
2023-03-12T19:28:59.655Z,12.27
2023-03-12T19:31:26.629Z,11.93
2023-03-12T19:33:53.419Z,11.60
2023-03-12T19:36:20.543Z,12.57
2023-03-12T19:38:47.362Z,12.87
2023-03-12T19:41:15.333Z,14.43
2023-03-12T19:43:43.277Z,12.47
2023-03-12T19:46:10.207Z,13.10
2023-03-12T19:48:39.126Z,12.43
2023-03-12T19:51:09.205Z,13.17
2023-03-12T19:53:36.770Z,13.73
2023-03-12T19:56:04.886Z,13.50
2023-03-12T19:58:33.827Z,13.37
2023-03-12T20:01:02.411Z,12.90
2023-03-12T20:03:30.796Z,12.87
2023-03-12T20:06:00.029Z,13.33
2023-03-12T20:08:30.503Z,13.47
2023-03-12T20:11:05.615Z,15.10
2023-03-12T20:13:34.322Z,15.37
2023-03-12T20:16:02.161Z,12.90
2023-03-12T20:18:29.260Z,13.90
2023-03-12T20:20:56.440Z,14.07
2023-03-12T20:23:23.347Z,12.13
2023-03-12T20:25:51.034Z,12.63
2023-03-12T20:28:18.096Z,12.07
2023-03-12T20:30:45.172Z,11.70
2023-03-12T20:33:12.523Z,12.30
2023-03-12T20:35:39.632Z,10.97
2023-03-12T20:38:06.795Z,12.00
2023-03-12T20:40:33.928Z,11.83
2023-03-12T20:43:04.702Z,9.93
2023-03-12T20:45:33.315Z,9.57
2023-03-12T20:48:00.588Z,9.33
2023-03-12T20:50:28.282Z,9.40
2023-03-12T20:52:55.120Z,8.03
2023-03-12T20:55:22.000Z,8.47
2023-03-12T20:57:48.885Z,8.30
2023-03-12T21:00:15.997Z,7.70
2023-03-12T21:02:43.162Z,8.50
2023-03-12T21:05:11.412Z,8.67
2023-03-12T21:07:38.340Z,8.97
2023-03-12T21:10:05.942Z,7.70
2023-03-12T21:12:33.189Z,7.83
2023-03-12T21:15:06.172Z,7.60
2023-03-12T21:17:34.569Z,6.97
2023-03-12T21:20:03.233Z,7.53
2023-03-12T21:22:31.565Z,6.43
2023-03-12T21:24:58.667Z,6.60
2023-03-12T21:27:25.441Z,6.90
2023-03-12T21:29:53.559Z,7.53
2023-03-12T21:32:21.940Z,7.00
2023-03-12T21:34:49.263Z,7.10
2023-03-12T21:37:16.873Z,7.50
2023-03-12T21:39:43.689Z,6.80
2023-03-12T21:42:10.496Z,7.00
2023-03-12T21:44:38.017Z,6.20
2023-03-12T21:47:05.234Z,7.93
2023-03-12T21:49:35.933Z,7.13
2023-03-12T21:52:03.865Z,6.60
2023-03-12T21:54:32.862Z,6.60
2023-03-12T21:57:02.807Z,6.40
2023-03-12T21:59:30.468Z,6.87
2023-03-12T22:01:57.649Z,6.47
2023-03-12T22:04:25.244Z,6.07
2023-03-12T22:06:52.194Z,5.87
2023-03-12T22:09:19.410Z,6.43
2023-03-12T22:11:46.120Z,5.80
2023-03-12T22:14:12.953Z,5.87
2023-03-12T22:16:39.768Z,7.43
2023-03-12T22:19:07.856Z,5.80
2023-03-12T22:21:34.988Z,6.37
2023-03-12T22:24:02.847Z,6.73
2023-03-12T22:26:29.929Z,5.97
2023-03-12T22:28:58.071Z,5.50
2023-03-12T22:31:27.009Z,6.10
2023-03-12T22:33:53.795Z,5.63
2023-03-12T22:36:21.053Z,6.53
2023-03-12T22:38:48.229Z,6.20
2023-03-12T22:41:26.587Z,6.30
2023-03-12T22:43:55.795Z,5.90
2023-03-12T22:46:25.001Z,7.03
2023-03-12T22:48:54.108Z,7.63
2023-03-12T22:51:21.003Z,7.07
2023-03-12T22:53:47.726Z,6.10
2023-03-12T22:56:14.790Z,6.47
2023-03-12T22:58:41.831Z,6.40
2023-03-12T23:01:17.037Z,6.60
2023-03-12T23:03:45.010Z,6.97
2023-03-12T23:06:14.014Z,5.87
2023-03-12T23:08:41.251Z,6.30
2023-03-12T23:11:09.490Z,6.53
2023-03-12T23:13:40.154Z,5.50
2023-03-12T23:16:12.563Z,5.90
2023-03-12T23:18:39.543Z,6.00
2023-03-12T23:21:08.959Z,6.13
2023-03-12T23:23:37.428Z,6.53
2023-03-12T23:26:04.345Z,7.40
2023-03-12T23:28:32.070Z,6.30
2023-03-12T23:31:05.005Z,5.70
2023-03-12T23:33:33.438Z,7.20
2023-03-12T23:36:06.545Z,5.90
2023-03-12T23:38:37.305Z,7.00
2023-03-12T23:41:11.297Z,6.33
2023-03-12T23:43:38.390Z,7.00
2023-03-12T23:46:07.085Z,7.97
2023-03-12T23:48:35.488Z,6.87
2023-03-12T23:51:07.019Z,5.97
2023-03-12T23:53:34.953Z,7.50
2023-03-12T23:56:03.885Z,7.20
2023-03-12T23:58:30.745Z,5.83
